Historyczne dane pomiarowe

Dodano dane terminowe – wersja testowa.

Dane z okresu 1951-2019

Wersja bazy: 1.34 [2019-03-16, lista zmian], aktualizacja planowana na 2019-04-15

Dane meteo z obszaru Polski uzyskane na podstawie danych udostępnionych przez Instytut Meteorologii i Gospodarki Wodnej – Państwowy Instytut Badawczy.

 

Wybierz Datę:    

       

TemperaturaWilgotnośćWiatrCiśnienieOpadyŚniegCzas trwania zjawisk
 Stacja t tx tn tng RH VA  wxwx mslp ppp RRR   cm mm wxwxwxwxwxwxwx
1994-08-14 14.0 17.6 9.1 8.3 66.3- 6.3 6.0---- 0.0------------
1994-08-13 15.7 18.7 13.9 12.9 82.5- 6.3 5.0---- 1.1------------
1994-08-12 16.8 20.7 13.2 11.9 92.8- 7.0 3.3---- 2.7------------
1994-08-11 18.0 26.5 16.6 16.1 88.0- 7.0 2.7---- 47.4------------
1994-08-10 22.1 29.4 12.3 9.5 69.5- 5.3 1.3---- 4.0------------
1994-08-09 21.2 26.1 16.8 16.1 76.0- 3.7 1.7---- 0.8------------
1994-08-08 20.8 26.1 15.2 12.4 78.0- 6.7 2.0---- 1.4------------
1994-08-07 22.7 27.9 14.2 12.7 71.3- 6.7 2.0---- 1.5------------
1994-08-06 24.5 31.3 17.0 13.1 70.0- 4.0 3.0---- 0.0------------
1994-08-05 24.2 34.1 10.7 6.6 57.0- 0.0 1.7---- 0.0------------
1994-08-04 22.6 31.1 10.2 7.2 56.0- 1.0 1.7---- 0.0------------
1994-08-03 21.5 30.1 18.8 14.1 67.8- 4.7 1.3---- 0.0------------
1994-08-02 24.5 32.9 20.1 14.9 74.0- 4.3 4.3---- 0.0------------
1994-08-01 27.1 36.5 15.1 11.8 54.5- 0.0 2.7---- 0.0------------
1994-07-31 27.0 37.0 15.3 12.4 49.8- 0.0 2.3---- 0.0------------
1994-07-30 26.4 35.5 14.7 11.7 53.8- 1.0 0.7---- 0.0------------
1994-07-29 25.3 36.0 15.1 11.9 50.5- 3.7 1.0---- 0.0------------
1994-07-28 24.7 34.1 12.9 11.9 53.0- 1.0 1.7---- 0.0------------
1994-07-27 25.2 32.1 18.1 16.1 61.8- 4.7 1.3---- 0.0------------
1994-07-26 24.7 34.1 13.8 10.7 56.8- 3.7 2.7---- 0.0------------
1994-07-25 24.8 33.1 13.2 9.4 46.3- 3.7 1.3---- 0.0------------
1994-07-24 22.1 31.1 10.7 8.6 51.3- 0.0 4.0---- 0.0------------
1994-07-23 22.9 30.1 10.7 6.5 39.8- 1.7 2.3---- 0.0------------
1994-07-22 21.3 30.1 7.6 5.0 48.3- 2.7 2.3---- 0.0------------
1994-07-21 19.0 26.6 6.1 4.7 56.0- 0.0 2.3---- 0.0------------
1994-07-20 17.8 24.1 9.1 4.0 56.8- 1.0 3.7---- 0.0------------
1994-07-19 17.4 21.9 13.7 11.4 76.3- 7.7 2.7---- 0.0------------
1994-07-18 18.3 24.1 11.9 10.5 80.5- 7.3 3.0---- 0.0------------
1994-07-17 20.7 28.4 13.2 11.9 77.0- 6.0 0.7---- 0.2------------
1994-07-16 21.6 27.7 14.9 14.4 72.5- 5.0 1.7---- 0.0------------
1994-07-15 21.5 30.1 12.7 10.4 68.8- 4.7 1.0---- 0.0------------
1994-07-14 22.1 30.6 11.9 8.9 60.0- 1.0 1.0---- 0.0------------
1994-07-13 21.7 29.1 11.5 7.4 55.8- 0.0 3.0---- 0.0------------
1994-07-12 19.7 26.2 9.7 8.4 72.3- 2.3 4.0---- 0.0------------
1994-07-11 20.5 27.3 10.1 8.2 60.3- 0.7 1.7---- 0.0------------
1994-07-10 18.9 24.6 12.8 12.4 70.5- 4.0 3.0---- 0.0------------
1994-07-09 17.4 21.1 12.2 10.2 67.5- 6.3 5.0---- 0.0------------
1994-07-08 14.0 16.5 10.0 8.9 75.5- 7.0 4.7---- 1.6------------
1994-07-07 16.1 23.1 10.8 9.8 89.5- 7.0 3.0---- 13.0------------
1994-07-06 20.5 25.6 13.6 12.3 67.0- 5.0 1.0---- 0.0------------
1994-07-05 20.6 25.7 14.2 13.4 71.5- 5.3 3.3---- 1.6------------
1994-07-04 22.1 31.1 11.7 9.9 60.8- 1.0 1.3---- 0.0------------
1994-07-03 21.1 29.6 9.1 6.5 54.0- 0.0 0.0---- 0.0------------
1994-07-02 18.2 25.5 7.2 5.3 61.8- 0.0 0.0---- 0.0------------
1994-07-01 17.7 23.6 7.0 5.5 64.3- 1.3 1.3---- 0.0------------
1994-06-30 19.7 27.9 14.8 15.3 71.5- 5.7 2.7---- 0.0------------
1994-06-29 26.8 33.1 19.8 18.4 72.0- 4.0 0.0---- 6.4------------
1994-06-28 24.8 30.3 16.1 15.9 79.5- 1.7 2.3---- 0.0------------
1994-06-27 23.2 31.1 13.3 10.9 74.5- 5.0 0.0---- 0.0------------
1994-06-26 22.8 29.6 13.0 8.4 58.5- 3.3 1.7---- 0.0------------
1994-06-25 18.5 27.1 3.6 0.0 63.8- 0.0 0.3---- 0.0------------
1994-06-24 15.2 21.1 4.6 4.3 46.5- 0.0 2.7---- 0.0------------
1994-06-23 16.9 21.5 11.7 7.9 53.5- 2.0 5.0---- 0.0------------
1994-06-22 19.7 24.3 14.6 10.9 71.3- 7.0 3.3---- 0.0------------
1994-06-21 17.9 23.1 7.1 4.5 69.5- 4.0 1.7---- 0.0------------
1994-06-20 16.7 23.7 13.0 8.3 74.5- 7.0 2.7---- 0.0------------
1994-06-19 19.1 24.6 12.0 8.9 64.3- 3.0 2.7---- 0.0------------
1994-06-18 14.0 20.3 5.2 1.3 72.0- 7.7 1.3---- 5.2------------
1994-06-17 11.3 15.4 7.8 5.2 67.0- 5.7 3.0---- 0.0------------
1994-06-16 11.3 15.3 8.4 4.0 84.8- 7.7 4.0---- 4.8------------
591.4 ms

 

Źródłem pochodzenia danych jest Instytut Meteorologii i Gospodarki Wodnej – Państwowy Instytut Badawczy. Dane Instytutu Meteorologii i Gospodarki Wodnej – Państwowego Instytutu Badawczego zostały przetworzone.

Dane źródłowe można odnaleźć na stronie https://dane.imgw.pl